sensor_id;sensor_type;location;lat;lon;timestamp;pressure;altitude;pressure_sealevel;temperature;humidity
21290;BME280;10804;48.988;2.408;2023-01-19T00:00:46;99944.06;;;7.12;69.74
21290;BME280;10804;48.988;2.408;2023-01-19T00:03:16;99947.56;;;7.11;69.35
21290;BME280;10804;48.988;2.408;2023-01-19T00:05:43;99951.84;;;7.12;69.64
21290;BME280;10804;48.988;2.408;2023-01-19T00:08:11;99950.19;;;7.10;69.84
21290;BME280;10804;48.988;2.408;2023-01-19T00:10:44;99954.47;;;7.11;69.46
21290;BME280;10804;48.988;2.408;2023-01-19T00:13:13;99954.50;;;7.09;69.78
21290;BME280;10804;48.988;2.408;2023-01-19T00:15:41;99957.97;;;7.08;69.59
21290;BME280;10804;48.988;2.408;2023-01-19T00:18:09;99956.22;;;7.10;69.73
21290;BME280;10804;48.988;2.408;2023-01-19T00:20:38;99959.66;;;7.11;69.86
21290;BME280;10804;48.988;2.408;2023-01-19T00:23:05;99957.16;;;7.08;69.97
21290;BME280;10804;48.988;2.408;2023-01-19T00:25:33;99964.88;;;7.09;69.60
21290;BME280;10804;48.988;2.408;2023-01-19T00:28:01;99956.22;;;7.10;69.34
21290;BME280;10804;48.988;2.408;2023-01-19T00:30:28;99952.75;;;7.11;69.67
21290;BME280;10804;48.988;2.408;2023-01-19T00:32:56;99954.50;;;7.09;69.91
21290;BME280;10804;48.988;2.408;2023-01-19T00:35:23;99968.34;;;7.08;69.33
21290;BME280;10804;48.988;2.408;2023-01-19T00:37:52;99968.34;;;7.08;69.63
21290;BME280;10804;48.988;2.408;2023-01-19T00:40:19;99968.31;;;7.10;69.36
21290;BME280;10804;48.988;2.408;2023-01-19T00:42:47;99963.16;;;7.08;69.66
21290;BME280;10804;48.988;2.408;2023-01-19T00:45:15;99970.13;;;7.08;69.32
21290;BME280;10804;48.988;2.408;2023-01-19T00:47:44;99961.47;;;7.07;69.22
21290;BME280;10804;48.988;2.408;2023-01-19T00:50:12;99975.31;;;7.06;69.50
21290;BME280;10804;48.988;2.408;2023-01-19T00:52:40;99979.63;;;7.06;69.56
21290;BME280;10804;48.988;2.408;2023-01-19T00:55:10;99975.31;;;7.06;69.63
21290;BME280;10804;48.988;2.408;2023-01-19T00:57:39;99980.59;;;7.03;69.74
21290;BME280;10804;48.988;2.408;2023-01-19T01:00:08;99977.09;;;7.04;69.78
21290;BME280;10804;48.988;2.408;2023-01-19T01:02:37;99991.78;;;7.04;69.38
21290;BME280;10804;48.988;2.408;2023-01-19T01:05:05;99978.00;;;7.03;69.43
21290;BME280;10804;48.988;2.408;2023-01-19T01:07:34;99989.22;;;7.02;69.84
21290;BME280;10804;48.988;2.408;2023-01-19T01:10:09;99986.59;;;7.04;69.46
21290;BME280;10804;48.988;2.408;2023-01-19T01:12:37;99999.59;;;7.02;69.73
21290;BME280;10804;48.988;2.408;2023-01-19T01:15:06;99998.72;;;7.03;69.71
21290;BME280;10804;48.988;2.408;2023-01-19T01:17:34;99998.75;;;7.02;69.97
21290;BME280;10804;48.988;2.408;2023-01-19T01:20:02;100004.78;;;7.02;69.70
21290;BME280;10804;48.988;2.408;2023-01-19T01:22:30;100007.44;;;7.01;69.90
21290;BME280;10804;48.988;2.408;2023-01-19T01:24:57;100011.72;;;7.02;69.46
21290;BME280;10804;48.988;2.408;2023-01-19T01:27:27;100011.75;;;7.00;69.88
21290;BME280;10804;48.988;2.408;2023-01-19T01:29:54;100018.63;;;7.01;69.80
21290;BME280;10804;48.988;2.408;2023-01-19T01:32:22;100019.50;;;7.02;69.78
21290;BME280;10804;48.988;2.408;2023-01-19T01:34:49;100021.31;;;6.98;69.57
21290;BME280;10804;48.988;2.408;2023-01-19T01:37:16;100022.13;;;7.00;69.61
21290;BME280;10804;48.988;2.408;2023-01-19T01:39:43;100025.63;;;6.98;69.85
21290;BME280;10804;48.988;2.408;2023-01-19T01:42:15;100025.69;;;6.96;69.86
21290;BME280;10804;48.988;2.408;2023-01-19T01:44:47;100024.78;;;6.97;69.65
21290;BME280;10804;48.988;2.408;2023-01-19T01:47:24;100035.19;;;6.96;69.56
21290;BME280;10804;48.988;2.408;2023-01-19T01:49:58;100036.88;;;6.97;69.28
21290;BME280;10804;48.988;2.408;2023-01-19T01:52:28;100040.38;;;6.96;69.63
21290;BME280;10804;48.988;2.408;2023-01-19T01:54:58;100036.09;;;6.93;69.45
21290;BME280;10804;48.988;2.408;2023-01-19T01:57:26;100041.22;;;6.96;69.67
21290;BME280;10804;48.988;2.408;2023-01-19T01:59:56;100053.28;;;6.97;69.68
21290;BME280;10804;48.988;2.408;2023-01-19T02:02:26;100050.75;;;6.94;69.75
21290;BME280;10804;48.988;2.408;2023-01-19T02:05:16;100053.34;;;6.94;69.42
21290;BME280;10804;48.988;2.408;2023-01-19T02:07:48;100058.53;;;6.94;69.41
21290;BME280;10804;48.988;2.408;2023-01-19T02:10:34;100064.59;;;6.93;69.57
21290;BME280;10804;48.988;2.408;2023-01-19T02:13:20;100056.81;;;6.93;69.60
21290;BME280;10804;48.988;2.408;2023-01-19T02:15:50;100050.84;;;6.91;69.43
21290;BME280;10804;48.988;2.408;2023-01-19T02:18:19;100060.38;;;6.89;69.78
21290;BME280;10804;48.988;2.408;2023-01-19T02:20:52;100057.75;;;6.91;69.65
21290;BME280;10804;48.988;2.408;2023-01-19T02:23:33;100054.41;;;6.87;69.71
21290;BME280;10804;48.988;2.408;2023-01-19T02:26:03;100059.56;;;6.87;69.64
21290;BME280;10804;48.988;2.408;2023-01-19T02:28:32;100064.69;;;6.90;69.41
21290;BME280;10804;48.988;2.408;2023-01-19T02:31:03;100069.88;;;6.90;69.75
21290;BME280;10804;48.988;2.408;2023-01-19T02:33:31;100062.16;;;6.87;69.93
21290;BME280;10804;48.988;2.408;2023-01-19T02:35:58;100056.13;;;6.85;69.62
21290;BME280;10804;48.988;2.408;2023-01-19T02:38:27;100059.56;;;6.87;69.86
21290;BME280;10804;48.988;2.408;2023-01-19T02:40:58;100055.25;;;6.86;69.58
21290;BME280;10804;48.988;2.408;2023-01-19T02:43:28;100063.88;;;6.87;69.73
21290;BME280;10804;48.988;2.408;2023-01-19T02:45:57;100059.59;;;6.86;69.85
21290;BME280;10804;48.988;2.408;2023-01-19T02:48:24;100058.72;;;6.85;69.88
21290;BME280;10804;48.988;2.408;2023-01-19T02:50:53;100054.44;;;6.84;69.63
21290;BME280;10804;48.988;2.408;2023-01-19T02:53:49;100063.09;;;6.85;69.79
21290;BME280;10804;48.988;2.408;2023-01-19T02:56:42;100063.09;;;6.85;69.43
21290;BME280;10804;48.988;2.408;2023-01-19T02:59:21;100067.41;;;6.83;69.90
21290;BME280;10804;48.988;2.408;2023-01-19T03:02:04;100062.22;;;6.83;70.10
21290;BME280;10804;48.988;2.408;2023-01-19T03:04:42;100057.94;;;6.82;69.52
21290;BME280;10804;48.988;2.408;2023-01-19T03:07:15;100058.84;;;6.81;69.64
21290;BME280;10804;48.988;2.408;2023-01-19T03:09:53;100058.00;;;6.80;69.88
21290;BME280;10804;48.988;2.408;2023-01-19T03:12:31;100058.81;;;6.82;69.68
21290;BME280;10804;48.988;2.408;2023-01-19T03:15:09;100057.13;;;6.80;69.50
21290;BME280;10804;48.988;2.408;2023-01-19T03:17:40;100053.66;;;6.79;69.79
21290;BME280;10804;48.988;2.408;2023-01-19T03:20:10;100062.31;;;6.80;69.86
21290;BME280;10804;48.988;2.408;2023-01-19T03:22:40;100069.22;;;6.79;69.43
21290;BME280;10804;48.988;2.408;2023-01-19T03:25:08;100061.44;;;6.79;69.47
21290;BME280;10804;48.988;2.408;2023-01-19T03:27:38;100052.84;;;6.79;69.78
21290;BME280;10804;48.988;2.408;2023-01-19T03:30:11;100057.16;;;6.78;69.59
21290;BME280;10804;48.988;2.408;2023-01-19T03:32:43;100062.34;;;6.78;69.94
21290;BME280;10804;48.988;2.408;2023-01-19T03:35:15;100063.22;;;6.77;69.89
21290;BME280;10804;48.988;2.408;2023-01-19T03:37:45;100059.81;;;6.77;69.84
21290;BME280;10804;48.988;2.408;2023-01-19T03:40:15;100064.13;;;6.76;69.66
21290;BME280;10804;48.988;2.408;2023-01-19T03:42:45;100065.81;;;6.77;69.50
21290;BME280;10804;48.988;2.408;2023-01-19T03:45:13;100065.81;;;6.77;69.55
21290;BME280;10804;48.988;2.408;2023-01-19T03:47:41;100064.13;;;6.76;69.78
21290;BME280;10804;48.988;2.408;2023-01-19T03:50:12;100064.13;;;6.76;69.76
21290;BME280;10804;48.988;2.408;2023-01-19T03:52:40;100062.41;;;6.75;69.39
21290;BME280;10804;48.988;2.408;2023-01-19T03:55:08;100050.38;;;6.71;69.72
21290;BME280;10804;48.988;2.408;2023-01-19T03:57:36;100071.06;;;6.74;69.44
21290;BME280;10804;48.988;2.408;2023-01-19T04:00:06;100065.03;;;6.74;69.61
21290;BME280;10804;48.988;2.408;2023-01-19T04:02:38;100060.75;;;6.71;69.56
21290;BME280;10804;48.988;2.408;2023-01-19T04:05:06;100061.59;;;6.73;69.95
21290;BME280;10804;48.988;2.408;2023-01-19T04:07:33;100063.31;;;6.73;69.76
21290;BME280;10804;48.988;2.408;2023-01-19T04:10:00;100072.84;;;6.72;69.76
21290;BME280;10804;48.988;2.408;2023-01-19T04:12:28;100075.47;;;6.71;69.87
21290;BME280;10804;48.988;2.408;2023-01-19T04:14:55;100064.22;;;6.72;69.72
21290;BME280;10804;48.988;2.408;2023-01-19T04:17:23;100062.50;;;6.72;69.67
21290;BME280;10804;48.988;2.408;2023-01-19T04:19:51;100066.81;;;6.70;69.79
21290;BME280;10804;48.988;2.408;2023-01-19T04:22:18;100072.00;;;6.72;69.68
21290;BME280;10804;48.988;2.408;2023-01-19T04:24:46;100066.81;;;6.72;69.66
21290;BME280;10804;48.988;2.408;2023-01-19T04:27:13;100070.31;;;6.68;69.55
21290;BME280;10804;48.988;2.408;2023-01-19T04:29:41;100077.25;;;6.69;69.54
21290;BME280;10804;48.988;2.408;2023-01-19T04:32:08;100072.91;;;6.69;69.61
21290;BME280;10804;48.988;2.408;2023-01-19T04:34:37;100066.00;;;6.68;69.62
21290;BME280;10804;48.988;2.408;2023-01-19T04:37:05;100070.28;;;6.71;69.75
21290;BME280;10804;48.988;2.408;2023-01-19T04:39:33;100072.91;;;6.69;69.94
21290;BME280;10804;48.988;2.408;2023-01-19T04:42:00;100064.31;;;6.67;69.67
21290;BME280;10804;48.988;2.408;2023-01-19T04:44:28;100068.59;;;6.68;69.44
21290;BME280;10804;48.988;2.408;2023-01-19T04:46:55;100065.19;;;6.66;69.85
21290;BME280;10804;48.988;2.408;2023-01-19T04:49:22;100067.78;;;6.66;69.74
21290;BME280;10804;48.988;2.408;2023-01-19T04:51:53;100060.03;;;6.66;69.51
21290;BME280;10804;48.988;2.408;2023-01-19T04:54:20;100057.38;;;6.68;69.80
21290;BME280;10804;48.988;2.408;2023-01-19T04:56:47;100069.50;;;6.67;69.83
21290;BME280;10804;48.988;2.408;2023-01-19T04:59:15;100066.00;;;6.68;69.63
21290;BME280;10804;48.988;2.408;2023-01-19T05:01:42;100068.63;;;6.67;69.59
21290;BME280;10804;48.988;2.408;2023-01-19T05:04:10;100069.50;;;6.67;69.69
21290;BME280;10804;48.988;2.408;2023-01-19T05:06:37;100066.09;;;6.65;69.52
21290;BME280;10804;48.988;2.408;2023-01-19T05:09:06;100064.34;;;6.66;69.96
21290;BME280;10804;48.988;2.408;2023-01-19T05:11:34;100057.47;;;6.63;69.65
21290;BME280;10804;48.988;2.408;2023-01-19T05:14:01;100072.97;;;6.66;69.84
21290;BME280;10804;48.988;2.408;2023-01-19T05:16:28;100068.69;;;6.64;69.95
21290;BME280;10804;48.988;2.408;2023-01-19T05:18:55;100066.97;;;6.64;69.77
21290;BME280;10804;48.988;2.408;2023-01-19T05:21:23;100075.56;;;6.66;69.41
21290;BME280;10804;48.988;2.408;2023-01-19T05:23:50;100066.13;;;6.62;69.81
21290;BME280;10804;48.988;2.408;2023-01-19T05:26:19;100068.69;;;6.65;69.37
21290;BME280;10804;48.988;2.408;2023-01-19T05:28:46;100066.09;;;6.65;69.78
21290;BME280;10804;48.988;2.408;2023-01-19T05:31:15;100066.13;;;6.62;69.53
21290;BME280;10804;48.988;2.408;2023-01-19T05:33:42;100074.78;;;6.63;69.61
21290;BME280;10804;48.988;2.408;2023-01-19T05:36:09;100070.41;;;6.63;69.61
21290;BME280;10804;48.988;2.408;2023-01-19T05:38:37;100072.16;;;6.64;69.82
21290;BME280;10804;48.988;2.408;2023-01-19T05:41:04;100073.00;;;6.63;69.72
21290;BME280;10804;48.988;2.408;2023-01-19T05:43:35;100069.59;;;6.61;69.89
21290;BME280;10804;48.988;2.408;2023-01-19T05:46:03;100069.59;;;6.61;69.80
21290;BME280;10804;48.988;2.408;2023-01-19T05:48:30;100074.78;;;6.61;69.91
21290;BME280;10804;48.988;2.408;2023-01-19T05:50:58;100071.38;;;6.59;69.56
21290;BME280;10804;48.988;2.408;2023-01-19T05:53:27;100064.44;;;6.61;69.64
21290;BME280;10804;48.988;2.408;2023-01-19T05:55:58;100067.94;;;6.59;69.62
21290;BME280;10804;48.988;2.408;2023-01-19T05:58:26;100071.38;;;6.59;69.63
21290;BME280;10804;48.988;2.408;2023-01-19T06:00:55;100074.88;;;6.58;69.59
21290;BME280;10804;48.988;2.408;2023-01-19T06:03:23;100073.16;;;6.57;69.88
21290;BME280;10804;48.988;2.408;2023-01-19T06:05:50;100078.28;;;6.59;69.64
21290;BME280;10804;48.988;2.408;2023-01-19T06:08:17;100081.75;;;6.59;69.56
21290;BME280;10804;48.988;2.408;2023-01-19T06:10:45;100080.03;;;6.58;70.05
21290;BME280;10804;48.988;2.408;2023-01-19T06:13:12;100067.13;;;6.57;69.98
21290;BME280;10804;48.988;2.408;2023-01-19T06:15:39;100078.38;;;6.56;69.53
21290;BME280;10804;48.988;2.408;2023-01-19T06:18:09;100078.34;;;6.57;69.80
21290;BME280;10804;48.988;2.408;2023-01-19T06:20:36;100074.06;;;6.55;69.94
21290;BME280;10804;48.988;2.408;2023-01-19T06:23:04;100076.59;;;6.56;69.45
21290;BME280;10804;48.988;2.408;2023-01-19T06:25:31;100081.03;;;6.53;69.53
21290;BME280;10804;48.988;2.408;2023-01-19T06:27:58;100078.47;;;6.51;70.04
21290;BME280;10804;48.988;2.408;2023-01-19T06:30:26;100084.53;;;6.50;69.48
21290;BME280;10804;48.988;2.408;2023-01-19T06:32:54;100088.84;;;6.48;69.76
21290;BME280;10804;48.988;2.408;2023-01-19T06:35:22;100090.63;;;6.46;70.08
21290;BME280;10804;48.988;2.408;2023-01-19T06:37:51;100094.94;;;6.47;69.88
21290;BME280;10804;48.988;2.408;2023-01-19T06:40:18;100092.41;;;6.44;69.78
21290;BME280;10804;48.988;2.408;2023-01-19T06:42:47;100108.00;;;6.41;69.81
21290;BME280;10804;48.988;2.408;2023-01-19T06:45:15;100107.16;;;6.41;69.72
21290;BME280;10804;48.988;2.408;2023-01-19T06:47:42;100102.00;;;6.39;69.97
21290;BME280;10804;48.988;2.408;2023-01-19T06:50:10;100107.16;;;6.41;69.75
21290;BME280;10804;48.988;2.408;2023-01-19T06:52:38;100105.47;;;6.37;69.78
21290;BME280;10804;48.988;2.408;2023-01-19T06:55:08;100115.03;;;6.35;69.70
21290;BME280;10804;48.988;2.408;2023-01-19T06:57:35;100115.03;;;6.33;69.98
21290;BME280;10804;48.988;2.408;2023-01-19T07:00:04;100115.00;;;6.36;69.99
21290;BME280;10804;48.988;2.408;2023-01-19T07:02:34;100111.59;;;6.34;69.91
21290;BME280;10804;48.988;2.408;2023-01-19T07:05:01;100115.03;;;6.33;70.00
21290;BME280;10804;48.988;2.408;2023-01-19T07:07:29;100112.53;;;6.29;70.17
21290;BME280;10804;48.988;2.408;2023-01-19T07:09:57;100120.28;;;6.32;70.11
21290;BME280;10804;48.988;2.408;2023-01-19T07:12:25;100122.00;;;6.31;69.88
21290;BME280;10804;48.988;2.408;2023-01-19T07:14:52;100117.78;;;6.27;69.95
21290;BME280;10804;48.988;2.408;2023-01-19T07:17:19;100113.47;;;6.26;69.99
21290;BME280;10804;48.988;2.408;2023-01-19T07:19:46;100109.19;;;6.24;70.04
21290;BME280;10804;48.988;2.408;2023-01-19T07:22:14;100110.03;;;6.24;69.82
21290;BME280;10804;48.988;2.408;2023-01-19T07:24:41;100110.09;;;6.21;69.96
21290;BME280;10804;48.988;2.408;2023-01-19T07:27:10;100104.94;;;6.21;69.95
21290;BME280;10804;48.988;2.408;2023-01-19T07:29:37;100106.69;;;6.19;69.99
21290;BME280;10804;48.988;2.408;2023-01-19T07:32:05;100110.16;;;6.18;69.87
21290;BME280;10804;48.988;2.408;2023-01-19T07:34:32;100112.78;;;6.15;70.08
21290;BME280;10804;48.988;2.408;2023-01-19T07:37:01;100111.97;;;6.15;70.02
21290;BME280;10804;48.988;2.408;2023-01-19T07:39:28;100115.34;;;6.18;69.99
21290;BME280;10804;48.988;2.408;2023-01-19T07:41:57;100118.00;;;6.14;70.23
21290;BME280;10804;48.988;2.408;2023-01-19T07:44:25;100117.25;;;6.09;70.26
21290;BME280;10804;48.988;2.408;2023-01-19T07:46:52;100128.41;;;6.11;70.19
21290;BME280;10804;48.988;2.408;2023-01-19T07:49:20;100128.47;;;6.08;70.29
21290;BME280;10804;48.988;2.408;2023-01-19T07:51:47;100132.78;;;6.07;70.24
21290;BME280;10804;48.988;2.408;2023-01-19T07:54:14;100137.97;;;6.06;70.14
21290;BME280;10804;48.988;2.408;2023-01-19T07:56:41;100131.97;;;6.04;70.30
21290;BME280;10804;48.988;2.408;2023-01-19T07:59:09;100130.28;;;6.01;70.15
21290;BME280;10804;48.988;2.408;2023-01-19T08:01:38;100131.97;;;6.04;70.04
21290;BME280;10804;48.988;2.408;2023-01-19T08:04:05;100137.22;;;6.01;70.20
21290;BME280;10804;48.988;2.408;2023-01-19T08:06:34;100132.88;;;6.01;69.99
21290;BME280;10804;48.988;2.408;2023-01-19T08:09:03;100132.94;;;6.00;70.34
21290;BME280;10804;48.988;2.408;2023-01-19T08:11:32;100132.94;;;5.98;70.04
21290;BME280;10804;48.988;2.408;2023-01-19T08:13:59;100132.94;;;5.98;70.14
21290;BME280;10804;48.988;2.408;2023-01-19T08:16:27;100142.41;;;5.99;70.12
21290;BME280;10804;48.988;2.408;2023-01-19T08:18:56;100149.31;;;5.99;70.32
21290;BME280;10804;48.988;2.408;2023-01-19T08:21:23;100139.88;;;5.96;70.33
21290;BME280;10804;48.988;2.408;2023-01-19T08:23:51;100147.59;;;5.98;70.19
21290;BME280;10804;48.988;2.408;2023-01-19T08:26:21;100151.94;;;5.97;70.13
21290;BME280;10804;48.988;2.408;2023-01-19T08:28:52;100148.50;;;5.95;70.09
21290;BME280;10804;48.988;2.408;2023-01-19T08:31:21;100150.25;;;5.96;70.15
21290;BME280;10804;48.988;2.408;2023-01-19T08:33:48;100145.06;;;5.95;70.01
21290;BME280;10804;48.988;2.408;2023-01-19T08:36:17;100152.78;;;5.98;70.06
21290;BME280;10804;48.988;2.408;2023-01-19T08:38:45;100147.66;;;5.95;70.14
21290;BME280;10804;48.988;2.408;2023-01-19T08:41:13;100151.97;;;5.94;70.24
21290;BME280;10804;48.988;2.408;2023-01-19T08:43:41;100151.06;;;5.97;70.06
21290;BME280;10804;48.988;2.408;2023-01-19T08:46:09;100151.94;;;5.97;70.23
21290;BME280;10804;48.988;2.408;2023-01-19T08:48:37;100151.94;;;5.97;70.11
21290;BME280;10804;48.988;2.408;2023-01-19T08:51:04;100151.91;;;5.99;70.01
21290;BME280;10804;48.988;2.408;2023-01-19T08:53:33;100154.47;;;6.00;69.92
21290;BME280;10804;48.988;2.408;2023-01-19T08:56:00;100151.03;;;6.00;70.07
21290;BME280;10804;48.988;2.408;2023-01-19T08:58:28;100156.25;;;5.98;70.23
21290;BME280;10804;48.988;2.408;2023-01-19T09:00:58;100150.19;;;5.99;70.06
21290;BME280;10804;48.988;2.408;2023-01-19T09:03:26;100159.63;;;6.03;70.11
21290;BME280;10804;48.988;2.408;2023-01-19T09:05:53;100151.88;;;6.02;70.14
21290;BME280;10804;48.988;2.408;2023-01-19T09:08:20;100156.97;;;6.06;70.00
21290;BME280;10804;48.988;2.408;2023-01-19T09:10:49;100154.38;;;6.06;70.09
21290;BME280;10804;48.988;2.408;2023-01-19T09:13:17;100155.19;;;6.08;69.99
21290;BME280;10804;48.988;2.408;2023-01-19T09:15:45;100146.59;;;6.06;69.73
21290;BME280;10804;48.988;2.408;2023-01-19T09:18:15;100150.91;;;6.07;69.92
21290;BME280;10804;48.988;2.408;2023-01-19T09:20:43;100149.13;;;6.11;69.82
21290;BME280;10804;48.988;2.408;2023-01-19T09:23:13;100162.84;;;6.14;69.75
21290;BME280;10804;48.988;2.408;2023-01-19T09:25:44;100160.25;;;6.16;69.73
21290;BME280;10804;48.988;2.408;2023-01-19T09:28:15;100156.81;;;6.15;69.68
21290;BME280;10804;48.988;2.408;2023-01-19T09:30:44;100164.47;;;6.20;69.80
21290;BME280;10804;48.988;2.408;2023-01-19T09:33:13;100160.09;;;6.23;69.71
21290;BME280;10804;48.988;2.408;2023-01-19T09:35:42;100151.50;;;6.23;69.46
21290;BME280;10804;48.988;2.408;2023-01-19T09:38:10;100163.47;;;6.28;69.86
21290;BME280;10804;48.988;2.408;2023-01-19T09:40:59;100163.47;;;6.28;69.50
21290;BME280;10804;48.988;2.408;2023-01-19T09:43:50;100161.78;;;6.27;69.54
21290;BME280;10804;48.988;2.408;2023-01-19T09:46:39;100160.00;;;6.31;69.56
21290;BME280;10804;48.988;2.408;2023-01-19T09:49:30;100161.63;;;6.35;69.30
21290;BME280;10804;48.988;2.408;2023-01-19T09:52:17;100163.38;;;6.34;69.60
21290;BME280;10804;48.988;2.408;2023-01-19T09:55:18;100167.72;;;6.32;69.64
21290;BME280;10804;48.988;2.408;2023-01-19T09:58:10;100154.72;;;6.35;69.38
21290;BME280;10804;48.988;2.408;2023-01-19T10:01:06;100167.56;;;6.41;69.50
21290;BME280;10804;48.988;2.408;2023-01-19T10:04:10;100170.19;;;6.40;69.60
21290;BME280;10804;48.988;2.408;2023-01-19T10:07:10;100163.16;;;6.45;69.24
21290;BME280;10804;48.988;2.408;2023-01-19T10:10:08;100160.56;;;6.45;69.21
21290;BME280;10804;48.988;2.408;2023-01-19T10:16:22;100167.44;;;6.47;69.46
21290;BME280;10804;48.988;2.408;2023-01-19T10:19:18;100172.59;;;6.49;69.37
21290;BME280;10804;48.988;2.408;2023-01-19T10:22:16;100164.81;;;6.50;69.36
21290;BME280;10804;48.988;2.408;2023-01-19T10:25:13;100167.34;;;6.53;69.47
21290;BME280;10804;48.988;2.408;2023-01-19T10:28:00;100168.16;;;6.55;69.00
21290;BME280;10804;48.988;2.408;2023-01-19T10:30:46;100167.25;;;6.56;69.10
21290;BME280;10804;48.988;2.408;2023-01-19T10:33:34;100170.75;;;6.55;69.26
21290;BME280;10804;48.988;2.408;2023-01-19T10:36:16;100157.78;;;6.57;69.36
21290;BME280;10804;48.988;2.408;2023-01-19T10:38:44;100154.28;;;6.58;68.87
21290;BME280;10804;48.988;2.408;2023-01-19T10:41:16;100159.47;;;6.59;68.95
21290;BME280;10804;48.988;2.408;2023-01-19T10:43:45;100159.47;;;6.59;68.86
21290;BME280;10804;48.988;2.408;2023-01-19T10:46:26;100160.28;;;6.60;69.45
21290;BME280;10804;48.988;2.408;2023-01-19T10:48:58;100156.88;;;6.59;69.32
21290;BME280;10804;48.988;2.408;2023-01-19T10:51:26;100155.09;;;6.61;69.02
21290;BME280;10804;48.988;2.408;2023-01-19T10:53:56;100155.97;;;6.62;69.08
21290;BME280;10804;48.988;2.408;2023-01-19T10:56:27;100155.88;;;6.66;68.95
21290;BME280;10804;48.988;2.408;2023-01-19T10:58:57;100144.63;;;6.67;69.11
21290;BME280;10804;48.988;2.408;2023-01-19T11:01:26;100144.59;;;6.69;69.00
21290;BME280;10804;48.988;2.408;2023-01-19T11:03:56;100138.53;;;6.70;68.89
21290;BME280;10804;48.988;2.408;2023-01-19T11:06:32;100137.63;;;6.72;68.84
21290;BME280;10804;48.988;2.408;2023-01-19T11:09:16;100134.97;;;6.75;68.59
21290;BME280;10804;48.988;2.408;2023-01-19T11:11:46;100138.44;;;6.74;68.94
21290;BME280;10804;48.988;2.408;2023-01-19T11:14:17;100140.06;;;6.78;68.99
21290;BME280;10804;48.988;2.408;2023-01-19T11:16:47;100134.00;;;6.79;68.61
21290;BME280;10804;48.988;2.408;2023-01-19T11:19:18;100131.38;;;6.81;68.66
21290;BME280;10804;48.988;2.408;2023-01-19T11:21:47;100126.19;;;6.82;68.52
21290;BME280;10804;48.988;2.408;2023-01-19T11:24:15;100126.16;;;6.84;68.95
21290;BME280;10804;48.988;2.408;2023-01-19T11:26:44;100129.59;;;6.84;68.71
21290;BME280;10804;48.988;2.408;2023-01-19T11:29:16;100127.81;;;6.86;68.85
21290;BME280;10804;48.988;2.408;2023-01-19T11:31:45;100123.50;;;6.87;68.69
21290;BME280;10804;48.988;2.408;2023-01-19T11:34:29;100124.38;;;6.87;69.14
21290;BME280;10804;48.988;2.408;2023-01-19T11:37:00;100122.59;;;6.89;68.65
21290;BME280;10804;48.988;2.408;2023-01-19T11:39:29;100120.81;;;6.91;68.74
21290;BME280;10804;48.988;2.408;2023-01-19T11:42:00;100118.22;;;6.90;68.68
21290;BME280;10804;48.988;2.408;2023-01-19T11:44:30;100111.31;;;6.92;68.59
21290;BME280;10804;48.988;2.408;2023-01-19T11:47:00;100106.06;;;6.93;68.85
21290;BME280;10804;48.988;2.408;2023-01-19T11:49:35;100114.72;;;6.94;68.93
21290;BME280;10804;48.988;2.408;2023-01-19T11:52:13;100105.25;;;6.91;68.84
21290;BME280;10804;48.988;2.408;2023-01-19T11:54:51;100098.28;;;6.93;68.73
21290;BME280;10804;48.988;2.408;2023-01-19T11:57:20;100101.72;;;6.95;68.60
21290;BME280;10804;48.988;2.408;2023-01-19T12:04:10;100098.25;;;6.96;68.62
21290;BME280;10804;48.988;2.408;2023-01-19T12:06:41;100079.22;;;6.97;68.47
21290;BME280;10804;48.988;2.408;2023-01-19T12:09:14;100082.63;;;6.98;68.58
21290;BME280;10804;48.988;2.408;2023-01-19T12:11:48;100088.66;;;7.00;68.86
21290;BME280;10804;48.988;2.408;2023-01-19T12:14:20;100079.13;;;7.02;68.76
21290;BME280;10804;48.988;2.408;2023-01-19T12:16:49;100066.13;;;7.03;68.50
21290;BME280;10804;48.988;2.408;2023-01-19T12:19:23;100071.31;;;7.03;68.60
21290;BME280;10804;48.988;2.408;2023-01-19T12:21:53;100063.53;;;7.03;68.54
21290;BME280;10804;48.988;2.408;2023-01-19T12:24:27;100053.94;;;7.07;68.16
21290;BME280;10804;48.988;2.408;2023-01-19T12:26:57;100062.56;;;7.07;68.40
21290;BME280;10804;48.988;2.408;2023-01-19T12:29:26;100062.56;;;7.07;68.28
21290;BME280;10804;48.988;2.408;2023-01-19T12:32:16;100053.06;;;7.08;68.69
21290;BME280;10804;48.988;2.408;2023-01-19T12:34:44;100054.75;;;7.10;68.44
21290;BME280;10804;48.988;2.408;2023-01-19T12:37:36;100052.09;;;7.12;68.54
21290;BME280;10804;48.988;2.408;2023-01-19T12:40:20;100058.09;;;7.14;68.09
21290;BME280;10804;48.988;2.408;2023-01-19T12:42:55;100042.59;;;7.12;68.48
21290;BME280;10804;48.988;2.408;2023-01-19T12:45:27;100051.19;;;7.14;68.42
21290;BME280;10804;48.988;2.408;2023-01-19T12:47:56;100046.00;;;7.14;68.47
21290;BME280;10804;48.988;2.408;2023-01-19T12:50:25;100055.50;;;7.14;68.58
21290;BME280;10804;48.988;2.408;2023-01-19T12:52:56;100034.75;;;7.14;68.57
21290;BME280;10804;48.988;2.408;2023-01-19T12:55:27;100031.31;;;7.15;68.25
21290;BME280;10804;48.988;2.408;2023-01-19T12:57:59;100033.81;;;7.18;68.44
21290;BME280;10804;48.988;2.408;2023-01-19T13:00:31;100031.31;;;7.15;68.44
21290;BME280;10804;48.988;2.408;2023-01-19T13:02:59;100023.44;;;7.18;68.26
21290;BME280;10804;48.988;2.408;2023-01-19T13:05:49;100019.13;;;7.18;68.63
21290;BME280;10804;48.988;2.408;2023-01-19T13:08:22;100018.22;;;7.19;68.67
21290;BME280;10804;48.988;2.408;2023-01-19T13:11:19;100013.94;;;7.18;68.40
21290;BME280;10804;48.988;2.408;2023-01-19T13:16:57;100019.06;;;7.20;68.34
21290;BME280;10804;48.988;2.408;2023-01-19T13:19:44;100018.22;;;7.19;68.44
21290;BME280;10804;48.988;2.408;2023-01-19T13:25:32;100015.56;;;7.21;68.35
21290;BME280;10804;48.988;2.408;2023-01-19T13:28:07;100015.63;;;7.19;68.76
21290;BME280;10804;48.988;2.408;2023-01-19T13:30:38;100013.84;;;7.21;68.43
21290;BME280;10804;48.988;2.408;2023-01-19T13:33:16;100014.75;;;7.20;68.66
21290;BME280;10804;48.988;2.408;2023-01-19T13:35:50;100010.38;;;7.22;68.53
21290;BME280;10804;48.988;2.408;2023-01-19T13:38:18;100007.84;;;7.19;68.39